createdAt,value
2023-02-04T00:00:37.499Z,16.23
2023-02-04T00:03:07.041Z,19.90
2023-02-04T00:05:35.650Z,16.40
2023-02-04T00:08:05.278Z,14.43
2023-02-04T00:10:34.751Z,16.23
2023-02-04T00:13:03.110Z,17.43
2023-02-04T00:15:31.694Z,18.13
2023-02-04T00:17:59.820Z,17.80
2023-02-04T00:20:28.418Z,16.80
2023-02-04T00:22:57.298Z,13.43
2023-02-04T00:25:27.087Z,11.07
2023-02-04T00:27:55.256Z,11.00
2023-02-04T00:30:23.653Z,11.10
2023-02-04T00:32:56.710Z,12.43
2023-02-04T00:35:25.446Z,11.83
2023-02-04T00:37:53.703Z,8.63
2023-02-04T00:40:22.559Z,8.10
2023-02-04T00:42:52.095Z,9.23
2023-02-04T00:45:20.508Z,6.70
2023-02-04T00:47:49.141Z,6.20
2023-02-04T00:50:17.880Z,6.37
2023-02-04T00:52:46.045Z,5.40
2023-02-04T00:55:17.092Z,4.80
2023-02-04T00:57:47.195Z,5.47
2023-02-04T01:00:18.963Z,4.77
2023-02-04T01:02:47.247Z,6.30
2023-02-04T01:05:15.718Z,4.67
2023-02-04T01:07:43.882Z,4.73
2023-02-04T01:10:13.334Z,5.17
2023-02-04T01:12:41.577Z,4.43
2023-02-04T01:15:11.187Z,4.87
2023-02-04T01:17:41.878Z,5.30
2023-02-04T01:20:11.040Z,4.33
2023-02-04T01:22:39.149Z,4.10
2023-02-04T01:25:08.440Z,4.10
2023-02-04T01:27:37.692Z,4.10
2023-02-04T01:30:07.038Z,4.30
2023-02-04T01:32:35.316Z,4.90
2023-02-04T01:35:05.335Z,4.23
2023-02-04T01:37:33.426Z,3.80
2023-02-04T01:40:01.592Z,3.73
2023-02-04T01:42:29.698Z,4.60
2023-02-04T01:44:57.979Z,4.17
2023-02-04T01:47:26.430Z,3.50
2023-02-04T01:49:56.384Z,3.87
2023-02-04T01:52:26.465Z,4.50
2023-02-04T01:54:55.010Z,4.17
2023-02-04T01:57:23.131Z,3.93
2023-02-04T01:59:53.601Z,3.70
2023-02-04T02:02:42.672Z,3.97
2023-02-04T02:05:13.450Z,4.30
2023-02-04T02:07:43.100Z,3.80
2023-02-04T02:10:13.810Z,3.93
2023-02-04T02:12:43.047Z,3.30
2023-02-04T02:15:12.976Z,3.80
2023-02-04T02:17:41.801Z,3.90
2023-02-04T02:20:11.714Z,3.53
2023-02-04T02:22:51.483Z,4.83
2023-02-04T02:25:21.088Z,4.53
2023-02-04T02:27:49.381Z,4.00
2023-02-04T02:30:19.930Z,4.73
2023-02-04T02:32:49.209Z,4.27
2023-02-04T02:35:17.827Z,4.80
2023-02-04T02:37:46.154Z,4.53
2023-02-04T02:40:15.445Z,4.60
2023-02-04T02:42:49.712Z,5.07
2023-02-04T02:45:23.554Z,4.90
2023-02-04T02:47:52.288Z,4.83
2023-02-04T02:50:23.529Z,4.80
2023-02-04T02:52:51.657Z,4.53
2023-02-04T02:55:21.901Z,4.30
2023-02-04T02:57:52.480Z,4.93
2023-02-04T03:00:24.022Z,4.97
2023-02-04T03:02:58.302Z,5.40
2023-02-04T03:05:27.364Z,5.40
2023-02-04T03:07:55.962Z,5.60
2023-02-04T03:10:24.123Z,4.20
2023-02-04T03:12:53.725Z,4.80
2023-02-04T03:15:22.101Z,4.87
2023-02-04T03:17:52.437Z,4.70
2023-02-04T03:20:20.765Z,5.00
2023-02-04T03:22:48.912Z,4.40
2023-02-04T03:25:17.202Z,4.57
2023-02-04T03:27:45.678Z,6.40
2023-02-04T03:30:15.310Z,6.13
2023-02-04T03:32:43.432Z,5.60
2023-02-04T03:35:11.575Z,5.40
2023-02-04T03:37:39.817Z,5.17
2023-02-04T03:40:08.686Z,4.50
2023-02-04T03:42:36.738Z,5.07
2023-02-04T03:45:05.224Z,5.27
2023-02-04T03:47:35.188Z,5.30
2023-02-04T03:50:03.643Z,4.80
2023-02-04T03:52:31.795Z,4.53
2023-02-04T03:54:59.951Z,5.07
2023-02-04T03:57:28.029Z,5.20
2023-02-04T03:59:57.253Z,4.57
2023-02-04T04:02:25.402Z,4.43
2023-02-04T04:04:54.967Z,4.70
2023-02-04T04:07:23.000Z,4.93
2023-02-04T04:09:51.222Z,5.10
2023-02-04T04:12:19.278Z,4.47
2023-02-04T04:14:47.383Z,4.70
2023-02-04T04:17:15.530Z,5.10
2023-02-04T04:19:45.036Z,4.60
2023-02-04T04:22:14.600Z,4.90
2023-02-04T04:24:42.889Z,4.43
2023-02-04T04:27:11.258Z,4.67
2023-02-04T04:29:39.513Z,5.00
2023-02-04T04:32:09.737Z,5.20
2023-02-04T04:34:38.228Z,5.30
2023-02-04T04:37:06.379Z,5.10
2023-02-04T04:39:35.890Z,4.20
2023-02-04T04:42:04.196Z,4.20
2023-02-04T04:44:32.290Z,4.10
2023-02-04T04:47:00.433Z,4.40
2023-02-04T04:49:28.551Z,3.87
2023-02-04T04:51:56.746Z,3.70
2023-02-04T04:54:24.950Z,4.50
2023-02-04T04:56:54.562Z,4.70
2023-02-04T04:59:22.751Z,4.90
2023-02-04T05:01:50.865Z,5.07
2023-02-04T05:04:18.967Z,6.10
2023-02-04T05:06:47.207Z,5.90
2023-02-04T05:09:17.554Z,5.67
2023-02-04T05:11:45.657Z,5.13
2023-02-04T05:14:15.132Z,4.50
2023-02-04T05:16:43.442Z,4.63
2023-02-04T05:19:12.029Z,4.93
2023-02-04T05:21:40.160Z,3.90
2023-02-04T05:24:08.484Z,4.57
2023-02-04T05:26:36.709Z,4.70
2023-02-04T05:29:06.495Z,4.03
2023-02-04T05:31:36.022Z,4.73
2023-02-04T05:34:04.135Z,4.97
2023-02-04T05:36:32.301Z,5.30
2023-02-04T05:39:00.544Z,6.33
2023-02-04T05:41:28.713Z,6.67
2023-02-04T05:43:56.812Z,5.67
2023-02-04T05:46:25.022Z,4.80
2023-02-04T05:48:54.499Z,5.83
2023-02-04T05:51:24.178Z,5.03
2023-02-04T05:53:52.288Z,5.93
2023-02-04T05:56:20.588Z,5.67
2023-02-04T05:58:48.798Z,5.20
2023-02-04T06:01:16.970Z,5.90
2023-02-04T06:03:45.476Z,5.93
2023-02-04T06:06:15.133Z,5.70
2023-02-04T06:08:43.256Z,5.43
2023-02-04T06:11:11.850Z,6.17
2023-02-04T06:13:39.923Z,6.90
2023-02-04T06:16:09.282Z,7.27
2023-02-04T06:18:37.403Z,6.73
2023-02-04T06:21:05.671Z,7.53
2023-02-04T06:23:35.340Z,6.27
2023-02-04T06:26:04.127Z,7.13
2023-02-04T06:28:32.264Z,6.33
2023-02-04T06:31:00.568Z,7.13
2023-02-04T06:33:28.759Z,6.27
2023-02-04T06:35:57.215Z,8.77
2023-02-04T06:38:25.594Z,7.33
2023-02-04T06:40:55.323Z,8.37
2023-02-04T06:43:25.553Z,9.23
2023-02-04T06:45:53.815Z,9.30
2023-02-04T06:48:21.957Z,9.50
2023-02-04T06:50:50.011Z,9.20
2023-02-04T06:53:18.193Z,10.10
2023-02-04T06:55:46.345Z,10.00
2023-02-04T06:58:15.937Z,10.27
2023-02-04T07:00:44.230Z,8.80
2023-02-04T07:03:12.485Z,8.97
2023-02-04T07:05:40.677Z,8.40
2023-02-04T07:08:08.944Z,8.33
2023-02-04T07:10:37.174Z,10.00
2023-02-04T07:13:05.283Z,10.93
2023-02-04T07:15:35.501Z,11.10
2023-02-04T07:18:03.724Z,11.20
2023-02-04T07:20:32.075Z,10.13
2023-02-04T07:23:00.397Z,11.13
2023-02-04T07:25:29.260Z,11.23
2023-02-04T07:27:59.453Z,11.53
2023-02-04T07:30:27.564Z,15.07
2023-02-04T07:32:57.119Z,10.60
2023-02-04T07:35:25.346Z,9.80
2023-02-04T07:37:53.420Z,10.43
2023-02-04T07:40:21.922Z,10.00
2023-02-04T07:42:50.237Z,9.93
2023-02-04T07:45:18.592Z,9.90
2023-02-04T07:47:46.936Z,9.90
2023-02-04T07:50:17.181Z,8.77
2023-02-04T07:52:46.417Z,9.10
2023-02-04T07:55:14.790Z,9.70
2023-02-04T07:57:42.921Z,10.20
2023-02-04T08:00:14.299Z,9.90
2023-02-04T08:02:42.634Z,10.40
2023-02-04T08:05:11.711Z,11.00
2023-02-04T08:07:41.740Z,10.77
2023-02-04T08:10:11.607Z,10.43
2023-02-04T08:12:39.877Z,9.87
2023-02-04T08:15:08.926Z,9.63
2023-02-04T08:17:37.293Z,9.10
2023-02-04T08:20:05.934Z,9.60
2023-02-04T08:22:35.672Z,9.10
2023-02-04T08:25:06.471Z,8.60
2023-02-04T08:27:34.598Z,8.00
2023-02-04T08:30:02.828Z,9.20
2023-02-04T08:32:31.384Z,8.10
2023-02-04T08:35:00.111Z,7.80
2023-02-04T08:37:28.836Z,7.53
2023-02-04T08:39:57.684Z,8.13
2023-02-04T08:42:27.243Z,7.93
2023-02-04T08:44:55.462Z,7.50
2023-02-04T08:47:23.633Z,7.13
2023-02-04T08:49:51.956Z,8.37
2023-02-04T08:52:20.206Z,8.77
2023-02-04T08:54:48.324Z,8.10
2023-02-04T08:57:16.456Z,7.93
2023-02-04T08:59:46.312Z,8.67
2023-02-04T09:02:15.953Z,8.93
2023-02-04T09:04:44.073Z,9.10
2023-02-04T09:07:12.170Z,9.17
2023-02-04T09:09:41.477Z,8.63
2023-02-04T09:12:09.571Z,9.60
2023-02-04T09:14:37.754Z,10.00
2023-02-04T09:17:07.897Z,10.03
2023-02-04T09:19:35.992Z,9.70
2023-02-04T09:22:04.117Z,9.33
2023-02-04T09:24:32.241Z,8.80
2023-02-04T09:27:00.531Z,8.03
2023-02-04T09:29:28.756Z,8.63
2023-02-04T09:31:56.916Z,7.77
2023-02-04T09:34:26.439Z,7.93
2023-02-04T09:36:54.519Z,9.60
2023-02-04T09:39:22.819Z,8.20
2023-02-04T09:41:54.081Z,8.40
2023-02-04T09:44:26.126Z,8.40
2023-02-04T09:47:00.698Z,9.00
2023-02-04T09:49:30.304Z,9.63
2023-02-04T09:51:58.627Z,10.67
2023-02-04T09:54:27.090Z,9.40
2023-02-04T09:56:55.339Z,10.53
2023-02-04T09:59:25.567Z,9.93
2023-02-04T10:01:59.203Z,9.77
2023-02-04T10:04:27.487Z,10.33
2023-02-04T10:06:59.195Z,9.07
2023-02-04T10:09:27.884Z,9.33
2023-02-04T10:11:57.375Z,10.87
2023-02-04T10:14:25.755Z,9.50
2023-02-04T10:16:59.119Z,10.60
2023-02-04T10:19:29.981Z,9.77
2023-02-04T10:22:01.100Z,9.23
2023-02-04T10:24:30.733Z,8.60
2023-02-04T10:27:09.637Z,7.53
2023-02-04T10:29:38.137Z,8.40
2023-02-04T10:32:06.456Z,9.80
2023-02-04T10:34:37.902Z,10.10
2023-02-04T10:37:20.237Z,9.70
2023-02-04T10:39:49.290Z,9.53
2023-02-04T10:42:24.070Z,9.67
2023-02-04T10:44:52.551Z,9.97
2023-02-04T10:47:22.011Z,9.57
2023-02-04T10:49:58.013Z,9.30
2023-02-04T10:52:35.358Z,10.70
2023-02-04T10:55:05.742Z,10.90
2023-02-04T10:57:36.841Z,9.87
2023-02-04T11:00:08.007Z,10.87
2023-02-04T11:02:44.700Z,10.57
2023-02-04T11:05:16.156Z,10.00
2023-02-04T11:07:46.781Z,10.53
2023-02-04T11:10:17.353Z,11.07
2023-02-04T11:12:47.987Z,9.37
2023-02-04T11:15:39.185Z,10.83
2023-02-04T11:18:09.369Z,11.80
2023-02-04T11:20:40.164Z,10.93
2023-02-04T11:23:32.685Z,11.30
2023-02-04T11:26:10.397Z,12.20
2023-02-04T11:28:48.919Z,12.40
2023-02-04T11:31:30.214Z,10.47
2023-02-04T11:34:14.724Z,10.87
2023-02-04T11:36:57.147Z,11.20
2023-02-04T11:39:30.611Z,10.80
2023-02-04T11:42:00.239Z,11.07
2023-02-04T11:44:29.296Z,11.70
2023-02-04T11:46:59.606Z,10.70
2023-02-04T11:49:28.736Z,11.33
2023-02-04T11:52:08.905Z,10.00
2023-02-04T11:54:39.573Z,11.40
2023-02-04T11:57:07.685Z,10.00
2023-02-04T11:59:36.158Z,10.80
2023-02-04T12:02:17.135Z,10.63
2023-02-04T12:04:53.409Z,10.30
2023-02-04T12:07:28.897Z,12.53
2023-02-04T12:09:59.138Z,10.90
2023-02-04T12:12:30.060Z,11.40
2023-02-04T12:15:00.159Z,12.50
2023-02-04T12:17:28.465Z,11.50
2023-02-04T12:19:56.582Z,11.17
2023-02-04T12:22:24.690Z,11.23
2023-02-04T12:24:53.619Z,10.83
2023-02-04T12:27:23.262Z,10.87
2023-02-04T12:29:51.313Z,12.83
2023-02-04T12:32:19.499Z,11.20
2023-02-04T12:34:47.580Z,12.03
2023-02-04T12:37:15.702Z,11.03
2023-02-04T12:39:43.742Z,10.50
2023-02-04T12:42:11.917Z,9.03
2023-02-04T12:44:41.595Z,9.23
2023-02-04T12:47:09.677Z,10.17
2023-02-04T12:49:38.156Z,9.87
2023-02-04T12:52:06.900Z,9.80
2023-02-04T12:54:34.997Z,10.13
2023-02-04T12:57:03.076Z,9.33
2023-02-04T12:59:31.643Z,10.50
2023-02-04T13:02:01.321Z,10.23
2023-02-04T13:04:29.434Z,11.63
2023-02-04T13:06:57.499Z,11.70
2023-02-04T13:09:25.667Z,10.30
2023-02-04T13:11:53.917Z,10.87
2023-02-04T13:14:22.004Z,11.00
2023-02-04T13:16:50.088Z,9.90
2023-02-04T13:19:19.600Z,5.83
2023-02-04T13:21:47.768Z,4.33
2023-02-04T13:24:17.719Z,4.00
2023-02-04T13:26:45.843Z,4.70
2023-02-04T13:29:14.014Z,4.00
2023-02-04T13:31:42.199Z,4.60
2023-02-04T13:34:10.389Z,5.53
2023-02-04T13:36:40.055Z,6.13
2023-02-04T13:39:10.504Z,6.60
2023-02-04T13:41:38.976Z,5.67
2023-02-04T13:44:07.634Z,7.33
2023-02-04T13:46:35.932Z,9.30
2023-02-04T13:49:04.517Z,9.53
2023-02-04T13:51:33.593Z,10.03
2023-02-04T13:54:03.377Z,9.90
2023-02-04T13:56:32.998Z,7.60
2023-02-04T13:59:01.104Z,8.37
2023-02-04T14:01:29.805Z,6.50
2023-02-04T14:03:58.032Z,7.80
2023-02-04T14:06:33.272Z,8.80
2023-02-04T14:09:03.167Z,8.83
2023-02-04T14:11:31.681Z,9.50
2023-02-04T14:13:59.787Z,7.93
2023-02-04T14:16:28.070Z,6.93
2023-02-04T14:18:56.288Z,6.00
2023-02-04T14:21:24.394Z,7.73
2023-02-04T14:23:52.503Z,6.07
2023-02-04T14:26:22.117Z,7.33
2023-02-04T14:28:50.173Z,8.47
2023-02-04T14:31:18.337Z,9.37
2023-02-04T14:33:47.624Z,8.37
2023-02-04T14:36:17.494Z,8.40
2023-02-04T14:38:45.694Z,8.47
2023-02-04T14:41:16.462Z,8.43
2023-02-04T14:43:46.067Z,9.00
2023-02-04T14:46:14.516Z,9.30
2023-02-04T14:48:42.615Z,8.10
2023-02-04T14:51:10.677Z,7.90
2023-02-04T14:53:42.267Z,8.90
2023-02-04T14:56:10.527Z,8.00
2023-02-04T14:58:38.790Z,6.47
2023-02-04T15:01:08.406Z,7.80
2023-02-04T15:03:36.529Z,8.90
2023-02-04T15:06:05.349Z,9.10
2023-02-04T15:08:33.616Z,7.90
2023-02-04T15:11:01.707Z,10.83
2023-02-04T15:13:30.464Z,9.63
2023-02-04T15:15:58.610Z,10.67
2023-02-04T15:18:28.485Z,11.83
2023-02-04T15:21:17.439Z,12.30
2023-02-04T15:24:21.890Z,11.17
2023-02-04T15:26:50.981Z,11.30
2023-02-04T15:29:19.617Z,10.90
2023-02-04T15:32:23.709Z,11.03
2023-02-04T15:34:53.404Z,11.43
2023-02-04T15:37:21.479Z,10.97
2023-02-04T15:39:49.658Z,12.27
2023-02-04T15:42:17.761Z,10.57
2023-02-04T15:44:45.891Z,12.47
2023-02-04T15:47:13.996Z,11.63
2023-02-04T15:49:42.246Z,14.83
2023-02-04T15:52:19.535Z,11.70
2023-02-04T15:54:51.287Z,11.00
2023-02-04T15:57:19.479Z,11.13
2023-02-04T15:59:48.316Z,8.10
2023-02-04T16:02:16.525Z,7.50
2023-02-04T16:04:45.699Z,7.07
2023-02-04T16:07:15.281Z,7.47
2023-02-04T16:09:43.892Z,6.43
2023-02-04T16:12:12.112Z,6.70
2023-02-04T16:14:40.305Z,5.83
2023-02-04T16:17:10.025Z,7.40
2023-02-04T16:19:38.205Z,8.33
2023-02-04T16:22:06.505Z,8.37
2023-02-04T16:24:36.831Z,7.00
2023-02-04T16:27:05.261Z,7.43
2023-02-04T16:29:33.551Z,8.10
2023-02-04T16:32:01.596Z,8.57
2023-02-04T16:34:30.158Z,11.33
2023-02-04T16:36:58.331Z,7.73
2023-02-04T16:39:26.503Z,5.23
2023-02-04T16:41:55.983Z,7.80
2023-02-04T16:44:24.156Z,6.53
2023-02-04T16:46:52.346Z,6.63
2023-02-04T16:49:20.576Z,7.00
2023-02-04T16:51:48.851Z,7.83
2023-02-04T16:54:17.014Z,5.87
2023-02-04T16:56:45.109Z,6.43
2023-02-04T16:59:14.751Z,6.40
2023-02-04T17:01:42.918Z,6.00
2023-02-04T17:04:11.188Z,7.30
2023-02-04T17:06:39.552Z,7.10
2023-02-04T17:09:07.780Z,6.50
2023-02-04T17:11:37.108Z,6.00
2023-02-04T17:14:08.724Z,5.00
2023-02-04T17:16:39.237Z,6.33
2023-02-04T17:19:07.344Z,5.67
2023-02-04T17:21:35.680Z,6.93
2023-02-04T17:24:04.575Z,5.80
2023-02-04T17:26:37.396Z,6.23
2023-02-04T17:29:06.901Z,6.50
2023-02-04T17:31:35.068Z,6.23
2023-02-04T17:34:04.890Z,6.83
2023-02-04T17:36:33.428Z,5.03
2023-02-04T17:39:02.078Z,4.90
2023-02-04T17:41:30.936Z,5.53
2023-02-04T17:44:00.182Z,4.40
2023-02-04T17:46:28.420Z,3.43
2023-02-04T17:48:56.636Z,3.43
2023-02-04T17:51:27.485Z,3.40
2023-02-04T17:53:55.604Z,2.40
2023-02-04T17:56:25.616Z,3.53
2023-02-04T17:58:55.744Z,3.30
2023-02-04T18:01:25.361Z,3.37
2023-02-04T18:03:53.688Z,3.90
2023-02-04T18:06:24.996Z,3.53
2023-02-04T18:08:56.585Z,3.70
2023-02-04T18:11:27.802Z,3.67
2023-02-04T18:14:00.831Z,3.90
2023-02-04T18:16:31.283Z,3.60
2023-02-04T18:19:19.928Z,3.70
2023-02-04T18:21:48.863Z,3.67
2023-02-04T18:24:21.012Z,3.90
2023-02-04T18:26:50.715Z,3.80
2023-02-04T18:29:33.619Z,3.83
2023-02-04T18:32:04.118Z,4.20
2023-02-04T18:34:37.185Z,3.63
2023-02-04T18:37:24.647Z,3.70
2023-02-04T18:39:57.064Z,3.67
2023-02-04T18:42:27.876Z,4.47
2023-02-04T18:44:57.064Z,4.37
2023-02-04T18:47:32.772Z,3.27
2023-02-04T18:50:03.259Z,3.90
2023-02-04T18:52:38.564Z,3.13
2023-02-04T18:55:25.364Z,4.23
2023-02-04T18:57:53.681Z,2.63
2023-02-04T19:00:32.820Z,3.70
2023-02-04T19:03:09.545Z,3.47
2023-02-04T19:05:43.601Z,3.30
2023-02-04T19:08:26.607Z,4.10
2023-02-04T19:10:57.768Z,3.73
2023-02-04T19:13:27.576Z,4.17
2023-02-04T19:15:59.939Z,4.40
2023-02-04T19:18:31.357Z,4.67
2023-02-04T19:21:20.631Z,3.60
2023-02-04T19:23:51.794Z,5.13
2023-02-04T19:26:30.938Z,5.30
2023-02-04T19:28:59.081Z,3.60
2023-02-04T19:31:34.236Z,5.20
2023-02-04T19:34:18.103Z,6.27
2023-02-04T19:36:46.553Z,4.03
2023-02-04T19:39:30.782Z,5.77
2023-02-04T19:42:02.185Z,4.77
2023-02-04T19:44:45.086Z,4.50
2023-02-04T19:47:25.754Z,7.07
2023-02-04T19:50:02.988Z,6.10
2023-02-04T19:52:36.131Z,7.70
2023-02-04T19:55:27.082Z,7.00
2023-02-04T19:58:03.252Z,7.53
2023-02-04T20:00:57.610Z,7.33
2023-02-04T20:03:38.396Z,7.73
2023-02-04T20:06:32.630Z,7.63
2023-02-04T20:09:03.909Z,8.20
2023-02-04T20:11:47.135Z,6.67
2023-02-04T20:14:42.833Z,7.40
2023-02-04T20:17:21.844Z,7.70
2023-02-04T20:19:50.336Z,6.37
2023-02-04T20:22:46.804Z,7.70
2023-02-04T20:25:38.498Z,8.07
2023-02-04T20:28:37.876Z,8.20
2023-02-04T20:31:23.601Z,6.97
2023-02-04T20:33:53.491Z,7.80
2023-02-04T20:36:38.446Z,7.00
2023-02-04T20:39:40.884Z,8.50
2023-02-04T20:42:25.052Z,6.77
2023-02-04T20:44:54.353Z,9.37
2023-02-04T20:47:26.262Z,8.87
2023-02-04T20:49:58.351Z,8.50
2023-02-04T20:53:03.888Z,8.03
2023-02-04T20:55:35.740Z,9.10
2023-02-04T20:58:15.643Z,8.10
2023-02-04T21:00:45.252Z,8.70
2023-02-04T21:03:25.012Z,10.33
2023-02-04T21:05:54.134Z,8.53
2023-02-04T21:08:42.025Z,6.50
2023-02-04T21:11:10.658Z,7.70
2023-02-04T21:13:40.943Z,9.20
2023-02-04T21:16:09.866Z,8.20
2023-02-04T21:18:39.830Z,6.90
2023-02-04T21:21:10.419Z,8.87
2023-02-04T21:23:39.074Z,9.40
2023-02-04T21:26:08.211Z,5.60
2023-02-04T21:28:36.485Z,7.00
2023-02-04T21:31:05.071Z,6.10
2023-02-04T21:33:33.363Z,5.20
2023-02-04T21:36:03.096Z,4.67
2023-02-04T21:38:31.331Z,5.70
2023-02-04T21:40:59.430Z,4.67
2023-02-04T21:43:27.594Z,4.60
2023-02-04T21:45:56.003Z,5.27
2023-02-04T21:48:24.804Z,4.13
2023-02-04T21:50:52.921Z,5.60
2023-02-04T21:53:22.644Z,4.57
2023-02-04T21:55:51.040Z,3.87
2023-02-04T21:58:20.314Z,3.73
2023-02-04T22:00:48.530Z,3.37
2023-02-04T22:03:17.481Z,3.73
2023-02-04T22:05:45.975Z,3.20
2023-02-04T22:08:14.173Z,3.63
2023-02-04T22:10:43.837Z,3.30
2023-02-04T22:13:11.935Z,3.20
2023-02-04T22:15:40.022Z,3.00
2023-02-04T22:18:08.214Z,3.80
2023-02-04T22:20:39.175Z,2.30
2023-02-04T22:23:07.762Z,2.57
2023-02-04T22:25:36.153Z,2.27
2023-02-04T22:28:05.848Z,1.90
2023-02-04T22:30:34.026Z,2.30
2023-02-04T22:33:02.815Z,2.30
2023-02-04T22:35:37.408Z,2.27
2023-02-04T22:38:05.557Z,2.40
2023-02-04T22:40:33.635Z,1.70
2023-02-04T22:43:05.644Z,2.60
2023-02-04T22:45:34.057Z,2.37
2023-02-04T22:48:02.380Z,2.20
2023-02-04T22:50:30.602Z,2.50
2023-02-04T22:52:58.741Z,3.60
2023-02-04T22:55:27.018Z,3.40
2023-02-04T22:57:55.290Z,2.90
2023-02-04T23:00:25.113Z,3.27
2023-02-04T23:02:53.267Z,3.50
2023-02-04T23:05:21.464Z,3.40
2023-02-04T23:07:49.821Z,3.80
2023-02-04T23:10:18.101Z,3.20
2023-02-04T23:12:46.194Z,4.30
2023-02-04T23:15:15.381Z,3.47
2023-02-04T23:17:45.289Z,3.70
2023-02-04T23:20:13.589Z,3.60
2023-02-04T23:22:41.862Z,3.70
2023-02-04T23:25:10.492Z,3.20
2023-02-04T23:27:38.694Z,2.87
2023-02-04T23:30:07.997Z,3.77
2023-02-04T23:32:36.130Z,4.57
2023-02-04T23:35:06.637Z,3.50
2023-02-04T23:37:37.172Z,2.93
2023-02-04T23:40:07.200Z,3.67
2023-02-04T23:42:35.374Z,2.45
2023-02-04T23:45:03.535Z,2.80
2023-02-04T23:47:31.698Z,3.07
2023-02-04T23:49:59.856Z,3.23
2023-02-04T23:52:29.528Z,3.80
2023-02-04T23:54:57.738Z,3.00
2023-02-04T23:57:25.951Z,3.10
2023-02-04T23:59:54.015Z,3.47
